sensor_id;sensor_type;location;lat;lon;timestamp;P1;durP1;ratioP1;P2;durP2;ratioP2
22070;SDS011;11200;51.488;6.668;2022-09-24T00:00:27;3.63;;;3.20;;
22070;SDS011;11200;51.488;6.668;2022-09-24T00:02:53;4.03;;;3.67;;
22070;SDS011;11200;51.488;6.668;2022-09-24T00:05:19;4.10;;;3.58;;
22070;SDS011;11200;51.488;6.668;2022-09-24T00:07:45;4.05;;;3.63;;
22070;SDS011;11200;51.488;6.668;2022-09-24T00:10:10;3.60;;;3.10;;
22070;SDS011;11200;51.488;6.668;2022-09-24T00:12:36;3.78;;;3.38;;
22070;SDS011;11200;51.488;6.668;2022-09-24T00:15:02;3.83;;;3.42;;
22070;SDS011;11200;51.488;6.668;2022-09-24T00:17:28;4.88;;;3.40;;
22070;SDS011;11200;51.488;6.668;2022-09-24T00:19:54;4.43;;;3.70;;
22070;SDS011;11200;51.488;6.668;2022-09-24T00:22:19;4.30;;;3.63;;
22070;SDS011;11200;51.488;6.668;2022-09-24T00:24:45;3.88;;;3.40;;
22070;SDS011;11200;51.488;6.668;2022-09-24T00:27:29;4.50;;;3.63;;
22070;SDS011;11200;51.488;6.668;2022-09-24T00:29:55;3.95;;;3.53;;
22070;SDS011;11200;51.488;6.668;2022-09-24T00:32:20;3.72;;;3.33;;
22070;SDS011;11200;51.488;6.668;2022-09-24T00:34:48;4.07;;;3.47;;
22070;SDS011;11200;51.488;6.668;2022-09-24T00:37:16;3.85;;;3.45;;
22070;SDS011;11200;51.488;6.668;2022-09-24T00:39:43;5.15;;;4.60;;
22070;SDS011;11200;51.488;6.668;2022-09-24T00:42:09;5.15;;;4.57;;
22070;SDS011;11200;51.488;6.668;2022-09-24T00:44:46;4.43;;;4.03;;
22070;SDS011;11200;51.488;6.668;2022-09-24T00:47:22;4.97;;;4.47;;
22070;SDS011;11200;51.488;6.668;2022-09-24T00:49:55;5.00;;;4.47;;
22070;SDS011;11200;51.488;6.668;2022-09-24T00:52:30;4.40;;;4.00;;
22070;SDS011;11200;51.488;6.668;2022-09-24T00:54:56;4.32;;;3.80;;
22070;SDS011;11200;51.488;6.668;2022-09-24T00:57:22;5.50;;;4.35;;
22070;SDS011;11200;51.488;6.668;2022-09-24T00:59:48;4.43;;;3.63;;
22070;SDS011;11200;51.488;6.668;2022-09-24T01:02:14;5.15;;;4.20;;
22070;SDS011;11200;51.488;6.668;2022-09-24T01:04:40;4.20;;;3.80;;
22070;SDS011;11200;51.488;6.668;2022-09-24T01:07:05;5.07;;;4.25;;
22070;SDS011;11200;51.488;6.668;2022-09-24T01:09:31;4.50;;;4.07;;
22070;SDS011;11200;51.488;6.668;2022-09-24T01:12:14;4.00;;;3.60;;
22070;SDS011;11200;51.488;6.668;2022-09-24T01:28:18;5.03;;;4.00;;
22070;SDS011;11200;51.488;6.668;2022-09-24T01:30:54;4.28;;;3.88;;
22070;SDS011;11200;51.488;6.668;2022-09-24T01:33:24;5.50;;;4.13;;
22070;SDS011;11200;51.488;6.668;2022-09-24T01:35:52;4.03;;;3.63;;
22070;SDS011;11200;51.488;6.668;2022-09-24T01:38:23;4.57;;;3.97;;
22070;SDS011;11200;51.488;6.668;2022-09-24T01:40:53;3.80;;;3.50;;
22070;SDS011;11200;51.488;6.668;2022-09-24T01:43:21;4.30;;;3.80;;
22070;SDS011;11200;51.488;6.668;2022-09-24T01:45:49;4.35;;;3.90;;
22070;SDS011;11200;51.488;6.668;2022-09-24T01:48:16;4.20;;;3.80;;
22070;SDS011;11200;51.488;6.668;2022-09-24T01:50:56;4.78;;;4.38;;
22070;SDS011;11200;51.488;6.668;2022-09-24T01:53:30;4.88;;;4.05;;
22070;SDS011;11200;51.488;6.668;2022-09-24T01:56:04;4.43;;;4.03;;
22070;SDS011;11200;51.488;6.668;2022-09-24T01:58:48;4.35;;;3.95;;
22070;SDS011;11200;51.488;6.668;2022-09-24T02:01:24;4.50;;;3.95;;
22070;SDS011;11200;51.488;6.668;2022-09-24T02:04:07;4.32;;;3.92;;
22070;SDS011;11200;51.488;6.668;2022-09-24T02:06:41;4.43;;;4.03;;
22070;SDS011;11200;51.488;6.668;2022-09-24T02:09:34;5.10;;;4.15;;
22070;SDS011;11200;51.488;6.668;2022-09-24T02:12:16;4.97;;;4.40;;
22070;SDS011;11200;51.488;6.668;2022-09-24T02:14:53;4.50;;;4.10;;
22070;SDS011;11200;51.488;6.668;2022-09-24T02:17:23;4.60;;;4.10;;
22070;SDS011;11200;51.488;6.668;2022-09-24T02:19:51;5.15;;;4.65;;
22070;SDS011;11200;51.488;6.668;2022-09-24T02:22:18;4.82;;;4.43;;
22070;SDS011;11200;51.488;6.668;2022-09-24T02:24:46;4.93;;;4.43;;
22070;SDS011;11200;51.488;6.668;2022-09-24T02:27:21;5.10;;;4.60;;
22070;SDS011;11200;51.488;6.668;2022-09-24T02:29:51;4.80;;;4.30;;
22070;SDS011;11200;51.488;6.668;2022-09-24T02:32:17;5.47;;;4.95;;
22070;SDS011;11200;51.488;6.668;2022-09-24T02:34:45;4.72;;;4.22;;
22070;SDS011;11200;51.488;6.668;2022-09-24T02:37:15;5.20;;;4.70;;
22070;SDS011;11200;51.488;6.668;2022-09-24T02:39:41;5.50;;;4.82;;
22070;SDS011;11200;51.488;6.668;2022-09-24T02:42:08;5.95;;;5.35;;
22070;SDS011;11200;51.488;6.668;2022-09-24T02:44:37;4.95;;;4.43;;
22070;SDS011;11200;51.488;6.668;2022-09-24T02:47:03;5.05;;;4.55;;
22070;SDS011;11200;51.488;6.668;2022-09-24T02:49:30;5.43;;;4.88;;
22070;SDS011;11200;51.488;6.668;2022-09-24T02:51:56;5.13;;;4.63;;
22070;SDS011;11200;51.488;6.668;2022-09-24T02:54:22;4.78;;;4.28;;
22070;SDS011;11200;51.488;6.668;2022-09-24T02:56:49;5.30;;;4.80;;
22070;SDS011;11200;51.488;6.668;2022-09-24T02:59:15;5.15;;;4.65;;
22070;SDS011;11200;51.488;6.668;2022-09-24T03:01:41;6.00;;;5.40;;
22070;SDS011;11200;51.488;6.668;2022-09-24T03:04:06;6.10;;;5.50;;
22070;SDS011;11200;51.488;6.668;2022-09-24T03:06:32;4.75;;;4.20;;
22070;SDS011;11200;51.488;6.668;2022-09-24T03:08:58;5.05;;;4.40;;
22070;SDS011;11200;51.488;6.668;2022-09-24T03:11:26;4.60;;;4.07;;
22070;SDS011;11200;51.488;6.668;2022-09-24T03:13:52;5.30;;;4.32;;
22070;SDS011;11200;51.488;6.668;2022-09-24T03:16:18;4.53;;;4.10;;
22070;SDS011;11200;51.488;6.668;2022-09-24T03:18:45;4.65;;;4.20;;
22070;SDS011;11200;51.488;6.668;2022-09-24T03:21:12;5.07;;;4.55;;
22070;SDS011;11200;51.488;6.668;2022-09-24T03:23:39;5.10;;;4.60;;
22070;SDS011;11200;51.488;6.668;2022-09-24T03:26:05;5.05;;;4.55;;
22070;SDS011;11200;51.488;6.668;2022-09-24T03:28:31;4.65;;;4.10;;
22070;SDS011;11200;51.488;6.668;2022-09-24T03:30:57;4.63;;;4.18;;
22070;SDS011;11200;51.488;6.668;2022-09-24T03:35:57;4.90;;;4.40;;
22070;SDS011;11200;51.488;6.668;2022-09-24T03:38:27;5.35;;;4.65;;
22070;SDS011;11200;51.488;6.668;2022-09-24T03:40:54;4.97;;;4.47;;
22070;SDS011;11200;51.488;6.668;2022-09-24T03:43:21;4.95;;;4.45;;
22070;SDS011;11200;51.488;6.668;2022-09-24T03:45:47;4.88;;;4.43;;
22070;SDS011;11200;51.488;6.668;2022-09-24T03:48:13;5.25;;;4.75;;
22070;SDS011;11200;51.488;6.668;2022-09-24T03:50:42;5.03;;;4.53;;
22070;SDS011;11200;51.488;6.668;2022-09-24T03:53:08;5.05;;;4.55;;
22070;SDS011;11200;51.488;6.668;2022-09-24T03:55:34;5.40;;;4.78;;
22070;SDS011;11200;51.488;6.668;2022-09-24T03:58:00;4.68;;;4.10;;
22070;SDS011;11200;51.488;6.668;2022-09-24T04:00:26;6.95;;;4.32;;
22070;SDS011;11200;51.488;6.668;2022-09-24T04:02:52;4.88;;;4.28;;
22070;SDS011;11200;51.488;6.668;2022-09-24T04:05:17;4.85;;;4.00;;
22070;SDS011;11200;51.488;6.668;2022-09-24T04:07:43;4.45;;;4.03;;
22070;SDS011;11200;51.488;6.668;2022-09-24T04:10:09;4.68;;;4.22;;
22070;SDS011;11200;51.488;6.668;2022-09-24T04:12:34;5.15;;;4.65;;
22070;SDS011;11200;51.488;6.668;2022-09-24T04:15:00;4.60;;;4.20;;
22070;SDS011;11200;51.488;6.668;2022-09-24T04:17:26;4.43;;;4.03;;
22070;SDS011;11200;51.488;6.668;2022-09-24T04:19:58;5.40;;;4.10;;
22070;SDS011;11200;51.488;6.668;2022-09-24T04:22:23;4.30;;;3.90;;
22070;SDS011;11200;51.488;6.668;2022-09-24T04:24:50;4.57;;;4.18;;
22070;SDS011;11200;51.488;6.668;2022-09-24T04:27:17;5.70;;;4.72;;
22070;SDS011;11200;51.488;6.668;2022-09-24T04:29:43;5.07;;;4.10;;
22070;SDS011;11200;51.488;6.668;2022-09-24T04:32:09;5.18;;;4.03;;
22070;SDS011;11200;51.488;6.668;2022-09-24T04:34:34;4.82;;;4.32;;
22070;SDS011;11200;51.488;6.668;2022-09-24T04:37:00;5.00;;;4.50;;
22070;SDS011;11200;51.488;6.668;2022-09-24T04:39:25;6.63;;;5.07;;
22070;SDS011;11200;51.488;6.668;2022-09-24T04:41:54;5.72;;;4.72;;
22070;SDS011;11200;51.488;6.668;2022-09-24T04:44:19;6.93;;;5.50;;
22070;SDS011;11200;51.488;6.668;2022-09-24T04:46:45;5.05;;;4.55;;
22070;SDS011;11200;51.488;6.668;2022-09-24T04:49:10;4.82;;;4.32;;
22070;SDS011;11200;51.488;6.668;2022-09-24T04:51:36;5.22;;;4.65;;
22070;SDS011;11200;51.488;6.668;2022-09-24T04:54:02;4.63;;;4.15;;
22070;SDS011;11200;51.488;6.668;2022-09-24T04:56:28;5.18;;;4.05;;
22070;SDS011;11200;51.488;6.668;2022-09-24T04:58:54;5.63;;;4.38;;
22070;SDS011;11200;51.488;6.668;2022-09-24T05:01:21;5.00;;;4.50;;
22070;SDS011;11200;51.488;6.668;2022-09-24T05:03:47;4.72;;;4.15;;
22070;SDS011;11200;51.488;6.668;2022-09-24T05:06:13;6.97;;;4.65;;
22070;SDS011;11200;51.488;6.668;2022-09-24T05:08:39;4.65;;;4.18;;
22070;SDS011;11200;51.488;6.668;2022-09-24T05:11:05;5.57;;;4.35;;
22070;SDS011;11200;51.488;6.668;2022-09-24T05:13:31;4.53;;;4.13;;
22070;SDS011;11200;51.488;6.668;2022-09-24T05:15:56;5.43;;;4.22;;
22070;SDS011;11200;51.488;6.668;2022-09-24T05:18:24;5.82;;;4.38;;
22070;SDS011;11200;51.488;6.668;2022-09-24T05:20:50;4.90;;;4.40;;
22070;SDS011;11200;51.488;6.668;2022-09-24T05:23:16;5.15;;;4.55;;
22070;SDS011;11200;51.488;6.668;2022-09-24T05:25:42;5.03;;;4.57;;
22070;SDS011;11200;51.488;6.668;2022-09-24T05:28:26;4.90;;;4.40;;
22070;SDS011;11200;51.488;6.668;2022-09-24T05:30:55;5.15;;;4.65;;
22070;SDS011;11200;51.488;6.668;2022-09-24T05:33:21;5.13;;;4.57;;
22070;SDS011;11200;51.488;6.668;2022-09-24T05:35:51;5.05;;;4.55;;
22070;SDS011;11200;51.488;6.668;2022-09-24T05:38:18;4.80;;;4.30;;
22070;SDS011;11200;51.488;6.668;2022-09-24T05:40:44;4.93;;;4.43;;
22070;SDS011;11200;51.488;6.668;2022-09-24T05:43:12;4.90;;;4.40;;
22070;SDS011;11200;51.488;6.668;2022-09-24T05:45:38;5.05;;;4.55;;
22070;SDS011;11200;51.488;6.668;2022-09-24T05:48:05;5.43;;;4.68;;
22070;SDS011;11200;51.488;6.668;2022-09-24T05:50:31;5.18;;;4.57;;
22070;SDS011;11200;51.488;6.668;2022-09-24T05:52:59;5.05;;;4.55;;
22070;SDS011;11200;51.488;6.668;2022-09-24T05:55:25;5.60;;;5.00;;
22070;SDS011;11200;51.488;6.668;2022-09-24T05:57:51;5.00;;;4.50;;
22070;SDS011;11200;51.488;6.668;2022-09-24T06:00:17;5.93;;;5.32;;
22070;SDS011;11200;51.488;6.668;2022-09-24T06:02:43;5.45;;;4.70;;
22070;SDS011;11200;51.488;6.668;2022-09-24T06:05:09;5.97;;;5.38;;
22070;SDS011;11200;51.488;6.668;2022-09-24T06:07:35;5.80;;;5.20;;
22070;SDS011;11200;51.488;6.668;2022-09-24T06:10:00;5.80;;;5.20;;
22070;SDS011;11200;51.488;6.668;2022-09-24T06:12:26;6.38;;;4.85;;
22070;SDS011;11200;51.488;6.668;2022-09-24T06:14:51;5.82;;;5.22;;
22070;SDS011;11200;51.488;6.668;2022-09-24T06:17:18;4.93;;;4.43;;
22070;SDS011;11200;51.488;6.668;2022-09-24T06:19:44;5.47;;;4.88;;
22070;SDS011;11200;51.488;6.668;2022-09-24T06:22:11;5.82;;;5.22;;
22070;SDS011;11200;51.488;6.668;2022-09-24T06:24:37;5.82;;;5.20;;
22070;SDS011;11200;51.488;6.668;2022-09-24T06:27:02;7.15;;;5.53;;
22070;SDS011;11200;51.488;6.668;2022-09-24T06:29:28;5.60;;;4.97;;
22070;SDS011;11200;51.488;6.668;2022-09-24T06:31:54;6.10;;;5.40;;
22070;SDS011;11200;51.488;6.668;2022-09-24T06:34:19;6.32;;;4.95;;
22070;SDS011;11200;51.488;6.668;2022-09-24T06:36:45;5.97;;;4.88;;
22070;SDS011;11200;51.488;6.668;2022-09-24T06:39:10;5.80;;;5.20;;
22070;SDS011;11200;51.488;6.668;2022-09-24T06:41:36;5.55;;;4.75;;
22070;SDS011;11200;51.488;6.668;2022-09-24T06:44:01;6.32;;;5.30;;
22070;SDS011;11200;51.488;6.668;2022-09-24T06:46:27;6.15;;;5.55;;
22070;SDS011;11200;51.488;6.668;2022-09-24T06:48:53;8.00;;;5.78;;
22070;SDS011;11200;51.488;6.668;2022-09-24T06:51:19;7.25;;;5.78;;
22070;SDS011;11200;51.488;6.668;2022-09-24T06:53:45;9.15;;;6.00;;
22070;SDS011;11200;51.488;6.668;2022-09-24T06:56:14;7.72;;;6.18;;
22070;SDS011;11200;51.488;6.668;2022-09-24T06:58:40;6.38;;;5.68;;
22070;SDS011;11200;51.488;6.668;2022-09-24T07:01:05;7.30;;;6.20;;
22070;SDS011;11200;51.488;6.668;2022-09-24T07:03:32;6.75;;;5.90;;
22070;SDS011;11200;51.488;6.668;2022-09-24T07:05:59;6.80;;;6.10;;
22070;SDS011;11200;51.488;6.668;2022-09-24T07:08:26;7.20;;;6.07;;
22070;SDS011;11200;51.488;6.668;2022-09-24T07:10:51;7.40;;;6.35;;
22070;SDS011;11200;51.488;6.668;2022-09-24T07:13:18;6.75;;;5.82;;
22070;SDS011;11200;51.488;6.668;2022-09-24T07:15:47;7.38;;;6.07;;
22070;SDS011;11200;51.488;6.668;2022-09-24T07:18:14;7.30;;;6.35;;
22070;SDS011;11200;51.488;6.668;2022-09-24T07:20:40;6.68;;;5.97;;
22070;SDS011;11200;51.488;6.668;2022-09-24T07:23:07;7.07;;;6.35;;
22070;SDS011;11200;51.488;6.668;2022-09-24T07:25:34;6.78;;;6.07;;
22070;SDS011;11200;51.488;6.668;2022-09-24T07:28:01;7.60;;;6.35;;
22070;SDS011;11200;51.488;6.668;2022-09-24T07:30:29;7.85;;;6.68;;
22070;SDS011;11200;51.488;6.668;2022-09-24T07:32:55;7.05;;;6.30;;
22070;SDS011;11200;51.488;6.668;2022-09-24T07:35:22;7.25;;;6.43;;
22070;SDS011;11200;51.488;6.668;2022-09-24T07:37:48;8.85;;;7.05;;
22070;SDS011;11200;51.488;6.668;2022-09-24T07:40:19;7.53;;;6.60;;
22070;SDS011;11200;51.488;6.668;2022-09-24T07:42:46;9.30;;;7.35;;
22070;SDS011;11200;51.488;6.668;2022-09-24T07:45:12;9.68;;;7.55;;
22070;SDS011;11200;51.488;6.668;2022-09-24T07:47:38;8.98;;;8.00;;
22070;SDS011;11200;51.488;6.668;2022-09-24T07:50:03;10.50;;;8.27;;
22070;SDS011;11200;51.488;6.668;2022-09-24T07:52:29;8.40;;;7.47;;
22070;SDS011;11200;51.488;6.668;2022-09-24T07:54:55;8.18;;;7.15;;
22070;SDS011;11200;51.488;6.668;2022-09-24T07:57:20;9.05;;;7.38;;
22070;SDS011;11200;51.488;6.668;2022-09-24T07:59:46;9.23;;;8.05;;
22070;SDS011;11200;51.488;6.668;2022-09-24T08:02:15;9.75;;;7.22;;
22070;SDS011;11200;51.488;6.668;2022-09-24T08:04:42;9.30;;;7.68;;
22070;SDS011;11200;51.488;6.668;2022-09-24T08:07:08;9.00;;;7.85;;
22070;SDS011;11200;51.488;6.668;2022-09-24T08:09:35;8.57;;;7.15;;
22070;SDS011;11200;51.488;6.668;2022-09-24T08:12:01;8.43;;;7.53;;
22070;SDS011;11200;51.488;6.668;2022-09-24T08:14:26;9.95;;;7.38;;
22070;SDS011;11200;51.488;6.668;2022-09-24T08:16:52;9.10;;;7.03;;
22070;SDS011;11200;51.488;6.668;2022-09-24T08:19:17;9.35;;;7.50;;
22070;SDS011;11200;51.488;6.668;2022-09-24T08:21:43;8.98;;;7.40;;
22070;SDS011;11200;51.488;6.668;2022-09-24T08:24:08;9.35;;;7.57;;
22070;SDS011;11200;51.488;6.668;2022-09-24T08:26:34;9.20;;;7.07;;
22070;SDS011;11200;51.488;6.668;2022-09-24T08:29:00;12.93;;;8.35;;
22070;SDS011;11200;51.488;6.668;2022-09-24T08:31:25;14.40;;;7.97;;
22070;SDS011;11200;51.488;6.668;2022-09-24T08:33:51;12.45;;;8.60;;
22070;SDS011;11200;51.488;6.668;2022-09-24T08:36:17;11.57;;;8.45;;
22070;SDS011;11200;51.488;6.668;2022-09-24T08:38:42;11.63;;;8.50;;
22070;SDS011;11200;51.488;6.668;2022-09-24T08:46:26;12.75;;;10.68;;
22070;SDS011;11200;51.488;6.668;2022-09-24T08:49:18;14.07;;;10.98;;
22070;SDS011;11200;51.488;6.668;2022-09-24T08:54:38;13.18;;;11.15;;
22070;SDS011;11200;51.488;6.668;2022-09-24T08:57:09;13.35;;;10.98;;
22070;SDS011;11200;51.488;6.668;2022-09-24T08:59:38;13.48;;;10.30;;
22070;SDS011;11200;51.488;6.668;2022-09-24T09:02:16;10.40;;;8.95;;
22070;SDS011;11200;51.488;6.668;2022-09-24T09:05:08;13.05;;;9.43;;
22070;SDS011;11200;51.488;6.668;2022-09-24T09:08:07;15.88;;;10.63;;
22070;SDS011;11200;51.488;6.668;2022-09-24T09:10:40;16.48;;;10.00;;
22070;SDS011;11200;51.488;6.668;2022-09-24T09:13:19;12.60;;;9.32;;
22070;SDS011;11200;51.488;6.668;2022-09-24T09:15:53;12.70;;;8.68;;
22070;SDS011;11200;51.488;6.668;2022-09-24T09:18:33;10.25;;;8.93;;
22070;SDS011;11200;51.488;6.668;2022-09-24T09:21:05;10.65;;;8.82;;
22070;SDS011;11200;51.488;6.668;2022-09-24T09:23:54;9.93;;;8.15;;
22070;SDS011;11200;51.488;6.668;2022-09-24T09:26:23;11.55;;;8.60;;
22070;SDS011;11200;51.488;6.668;2022-09-24T09:28:49;11.63;;;8.75;;
22070;SDS011;11200;51.488;6.668;2022-09-24T09:34:24;10.38;;;8.05;;
22070;SDS011;11200;51.488;6.668;2022-09-24T09:42:34;10.30;;;8.63;;
22070;SDS011;11200;51.488;6.668;2022-09-24T09:45:02;10.20;;;8.52;;
22070;SDS011;11200;51.488;6.668;2022-09-24T09:47:57;12.05;;;8.52;;
22070;SDS011;11200;51.488;6.668;2022-09-24T09:50:36;13.18;;;8.40;;
22070;SDS011;11200;51.488;6.668;2022-09-24T09:53:18;13.20;;;8.98;;
22070;SDS011;11200;51.488;6.668;2022-09-24T09:55:51;10.65;;;8.95;;
22070;SDS011;11200;51.488;6.668;2022-09-24T09:58:32;10.10;;;8.02;;
22070;SDS011;11200;51.488;6.668;2022-09-24T10:01:07;9.82;;;8.25;;
22070;SDS011;11200;51.488;6.668;2022-09-24T10:06:11;10.15;;;8.80;;
22070;SDS011;11200;51.488;6.668;2022-09-24T10:08:37;9.82;;;8.52;;
22070;SDS011;11200;51.488;6.668;2022-09-24T10:11:04;8.82;;;7.63;;
22070;SDS011;11200;51.488;6.668;2022-09-24T10:13:31;8.55;;;7.30;;
22070;SDS011;11200;51.488;6.668;2022-09-24T10:15:58;8.57;;;7.35;;
22070;SDS011;11200;51.488;6.668;2022-09-24T10:18:29;8.73;;;7.03;;
22070;SDS011;11200;51.488;6.668;2022-09-24T10:21:04;8.68;;;7.60;;
22070;SDS011;11200;51.488;6.668;2022-09-24T10:23:38;7.35;;;6.60;;
22070;SDS011;11200;51.488;6.668;2022-09-24T10:26:04;7.40;;;6.05;;
22070;SDS011;11200;51.488;6.668;2022-09-24T10:28:32;9.30;;;5.95;;
22070;SDS011;11200;51.488;6.668;2022-09-24T10:31:23;6.45;;;5.72;;
22070;SDS011;11200;51.488;6.668;2022-09-24T10:33:52;7.88;;;5.65;;
22070;SDS011;11200;51.488;6.668;2022-09-24T10:36:23;8.57;;;5.85;;
22070;SDS011;11200;51.488;6.668;2022-09-24T10:39:12;7.43;;;5.93;;
22070;SDS011;11200;51.488;6.668;2022-09-24T10:41:44;6.32;;;5.50;;
22070;SDS011;11200;51.488;6.668;2022-09-24T10:44:23;7.63;;;5.72;;
22070;SDS011;11200;51.488;6.668;2022-09-24T11:00:33;7.35;;;6.35;;
22070;SDS011;11200;51.488;6.668;2022-09-24T11:32:25;7.43;;;6.50;;
22070;SDS011;11200;51.488;6.668;2022-09-24T11:50:39;8.70;;;6.88;;
22070;SDS011;11200;51.488;6.668;2022-09-24T11:56:09;8.13;;;6.15;;
22070;SDS011;11200;51.488;6.668;2022-09-24T12:01:43;6.93;;;5.95;;
22070;SDS011;11200;51.488;6.668;2022-09-24T12:04:15;8.93;;;5.88;;
22070;SDS011;11200;51.488;6.668;2022-09-24T12:31:50;7.00;;;6.10;;
22070;SDS011;11200;51.488;6.668;2022-09-24T12:44:32;6.78;;;6.05;;
22070;SDS011;11200;51.488;6.668;2022-09-24T12:47:00;6.78;;;5.60;;
22070;SDS011;11200;51.488;6.668;2022-09-24T12:53:18;6.57;;;5.90;;
22070;SDS011;11200;51.488;6.668;2022-09-24T12:55:58;6.97;;;6.28;;
22070;SDS011;11200;51.488;6.668;2022-09-24T12:58:29;7.03;;;6.32;;
22070;SDS011;11200;51.488;6.668;2022-09-24T13:01:06;7.28;;;6.47;;
22070;SDS011;11200;51.488;6.668;2022-09-24T13:03:35;9.43;;;7.25;;
22070;SDS011;11200;51.488;6.668;2022-09-24T13:06:04;18.40;;;9.63;;
22070;SDS011;11200;51.488;6.668;2022-09-24T13:08:46;11.10;;;8.15;;
22070;SDS011;11200;51.488;6.668;2022-09-24T13:16:30;7.78;;;6.97;;
22070;SDS011;11200;51.488;6.668;2022-09-24T13:19:01;7.03;;;6.30;;
22070;SDS011;11200;51.488;6.668;2022-09-24T13:21:30;7.75;;;6.93;;
22070;SDS011;11200;51.488;6.668;2022-09-24T13:23:56;7.53;;;6.50;;
22070;SDS011;11200;51.488;6.668;2022-09-24T13:26:26;7.28;;;6.45;;
22070;SDS011;11200;51.488;6.668;2022-09-24T13:29:04;6.95;;;6.20;;
22070;SDS011;11200;51.488;6.668;2022-09-24T13:31:46;7.45;;;6.38;;
22070;SDS011;11200;51.488;6.668;2022-09-24T13:34:26;10.23;;;6.55;;
22070;SDS011;11200;51.488;6.668;2022-09-24T13:39:41;7.95;;;6.70;;
22070;SDS011;11200;51.488;6.668;2022-09-24T13:45:19;7.35;;;6.65;;
22070;SDS011;11200;51.488;6.668;2022-09-24T13:52:55;9.35;;;7.75;;
22070;SDS011;11200;51.488;6.668;2022-09-24T14:00:57;9.68;;;7.63;;
22070;SDS011;11200;51.488;6.668;2022-09-24T14:03:30;9.90;;;8.02;;
22070;SDS011;11200;51.488;6.668;2022-09-24T14:05:58;8.82;;;7.90;;
22070;SDS011;11200;51.488;6.668;2022-09-24T14:08:25;7.68;;;6.88;;
22070;SDS011;11200;51.488;6.668;2022-09-24T14:13:49;9.40;;;7.47;;
22070;SDS011;11200;51.488;6.668;2022-09-24T14:16:23;8.10;;;7.30;;
22070;SDS011;11200;51.488;6.668;2022-09-24T14:19:01;8.73;;;7.82;;
22070;SDS011;11200;51.488;6.668;2022-09-24T14:21:35;10.07;;;8.00;;
22070;SDS011;11200;51.488;6.668;2022-09-24T14:24:13;9.38;;;7.55;;
22070;SDS011;11200;51.488;6.668;2022-09-24T14:26:56;9.35;;;8.45;;
22070;SDS011;11200;51.488;6.668;2022-09-24T14:32:31;8.68;;;7.78;;
22070;SDS011;11200;51.488;6.668;2022-09-24T14:35:23;8.35;;;7.50;;
22070;SDS011;11200;51.488;6.668;2022-09-24T14:40:52;8.75;;;7.45;;
22070;SDS011;11200;51.488;6.668;2022-09-24T14:46:05;8.15;;;7.35;;
22070;SDS011;11200;51.488;6.668;2022-09-24T14:48:47;8.55;;;7.75;;
22070;SDS011;11200;51.488;6.668;2022-09-24T14:51:23;9.05;;;7.75;;
22070;SDS011;11200;51.488;6.668;2022-09-24T14:54:17;8.75;;;7.18;;
22070;SDS011;11200;51.488;6.668;2022-09-24T14:56:46;8.55;;;7.32;;
22070;SDS011;11200;51.488;6.668;2022-09-24T14:59:13;8.27;;;7.38;;
22070;SDS011;11200;51.488;6.668;2022-09-24T15:01:41;8.95;;;8.05;;
22070;SDS011;11200;51.488;6.668;2022-09-24T15:04:19;11.35;;;9.05;;
22070;SDS011;11200;51.488;6.668;2022-09-24T15:06:50;9.00;;;8.00;;
22070;SDS011;11200;51.488;6.668;2022-09-24T15:09:23;8.55;;;7.65;;
22070;SDS011;11200;51.488;6.668;2022-09-24T15:11:51;8.82;;;7.78;;
22070;SDS011;11200;51.488;6.668;2022-09-24T15:14:20;10.80;;;7.57;;
22070;SDS011;11200;51.488;6.668;2022-09-24T15:16:51;8.90;;;8.00;;
22070;SDS011;11200;51.488;6.668;2022-09-24T15:19:19;8.98;;;7.90;;
22070;SDS011;11200;51.488;6.668;2022-09-24T15:21:50;8.70;;;7.82;;
22070;SDS011;11200;51.488;6.668;2022-09-24T15:24:18;8.27;;;7.47;;
22070;SDS011;11200;51.488;6.668;2022-09-24T15:29:27;8.43;;;7.55;;
22070;SDS011;11200;51.488;6.668;2022-09-24T15:31:52;8.88;;;7.97;;
22070;SDS011;11200;51.488;6.668;2022-09-24T15:34:20;8.85;;;7.95;;
22070;SDS011;11200;51.488;6.668;2022-09-24T15:36:55;8.98;;;7.93;;
22070;SDS011;11200;51.488;6.668;2022-09-24T15:39:25;9.00;;;8.07;;
22070;SDS011;11200;51.488;6.668;2022-09-24T15:41:52;9.30;;;8.32;;
22070;SDS011;11200;51.488;6.668;2022-09-24T15:44:22;9.77;;;8.30;;
22070;SDS011;11200;51.488;6.668;2022-09-24T15:46:49;8.93;;;8.02;;
22070;SDS011;11200;51.488;6.668;2022-09-24T15:49:16;8.43;;;7.57;;
22070;SDS011;11200;51.488;6.668;2022-09-24T15:51:46;9.65;;;8.65;;
22070;SDS011;11200;51.488;6.668;2022-09-24T15:54:16;9.32;;;8.43;;
22070;SDS011;11200;51.488;6.668;2022-09-24T15:56:41;11.27;;;10.00;;
22070;SDS011;11200;51.488;6.668;2022-09-24T15:59:13;12.70;;;10.23;;
22070;SDS011;11200;51.488;6.668;2022-09-24T16:01:40;10.52;;;9.48;;
22070;SDS011;11200;51.488;6.668;2022-09-24T16:04:07;14.10;;;11.00;;
22070;SDS011;11200;51.488;6.668;2022-09-24T16:06:39;12.55;;;11.25;;
22070;SDS011;11200;51.488;6.668;2022-09-24T16:09:05;15.45;;;13.32;;
22070;SDS011;11200;51.488;6.668;2022-09-24T16:11:30;15.88;;;14.07;;
22070;SDS011;11200;51.488;6.668;2022-09-24T16:13:56;15.90;;;13.82;;
22070;SDS011;11200;51.488;6.668;2022-09-24T16:16:22;14.10;;;12.65;;
22070;SDS011;11200;51.488;6.668;2022-09-24T16:18:48;15.35;;;12.45;;
22070;SDS011;11200;51.488;6.668;2022-09-24T16:21:13;13.60;;;12.18;;
22070;SDS011;11200;51.488;6.668;2022-09-24T16:23:39;12.40;;;11.10;;
22070;SDS011;11200;51.488;6.668;2022-09-24T16:26:05;13.40;;;12.02;;
22070;SDS011;11200;51.488;6.668;2022-09-24T16:28:30;12.98;;;11.57;;
22070;SDS011;11200;51.488;6.668;2022-09-24T16:30:56;13.77;;;12.35;;
22070;SDS011;11200;51.488;6.668;2022-09-24T16:33:22;13.60;;;11.70;;
22070;SDS011;11200;51.488;6.668;2022-09-24T16:35:48;12.73;;;11.20;;
22070;SDS011;11200;51.488;6.668;2022-09-24T16:38:14;13.48;;;12.07;;
22070;SDS011;11200;51.488;6.668;2022-09-24T16:40:41;14.40;;;12.23;;
22070;SDS011;11200;51.488;6.668;2022-09-24T16:43:06;14.05;;;11.48;;
22070;SDS011;11200;51.488;6.668;2022-09-24T16:45:32;13.13;;;11.73;;
22070;SDS011;11200;51.488;6.668;2022-09-24T16:47:58;12.95;;;11.52;;
22070;SDS011;11200;51.488;6.668;2022-09-24T16:50:24;14.02;;;11.98;;
22070;SDS011;11200;51.488;6.668;2022-09-24T16:52:50;12.18;;;10.93;;
22070;SDS011;11200;51.488;6.668;2022-09-24T16:55:19;15.55;;;12.55;;
22070;SDS011;11200;51.488;6.668;2022-09-24T16:57:48;20.20;;;15.48;;
22070;SDS011;11200;51.488;6.668;2022-09-24T17:00:14;23.38;;;17.80;;
22070;SDS011;11200;51.488;6.668;2022-09-24T17:02:40;19.83;;;15.90;;
22070;SDS011;11200;51.488;6.668;2022-09-24T17:05:06;16.27;;;14.55;;
22070;SDS011;11200;51.488;6.668;2022-09-24T17:07:32;14.52;;;12.93;;
22070;SDS011;11200;51.488;6.668;2022-09-24T17:09:58;13.68;;;11.25;;
22070;SDS011;11200;51.488;6.668;2022-09-24T17:12:44;13.45;;;11.98;;
22070;SDS011;11200;51.488;6.668;2022-09-24T17:15:15;12.80;;;11.50;;
22070;SDS011;11200;51.488;6.668;2022-09-24T17:17:44;14.55;;;11.95;;
22070;SDS011;11200;51.488;6.668;2022-09-24T17:20:10;13.02;;;11.20;;
22070;SDS011;11200;51.488;6.668;2022-09-24T17:22:36;13.35;;;11.95;;
22070;SDS011;11200;51.488;6.668;2022-09-24T17:25:02;14.00;;;11.98;;
22070;SDS011;11200;51.488;6.668;2022-09-24T17:27:35;11.93;;;10.75;;
22070;SDS011;11200;51.488;6.668;2022-09-24T17:30:01;12.82;;;11.43;;
22070;SDS011;11200;51.488;6.668;2022-09-24T17:32:28;12.05;;;10.82;;
22070;SDS011;11200;51.488;6.668;2022-09-24T17:34:54;12.70;;;11.40;;
22070;SDS011;11200;51.488;6.668;2022-09-24T17:37:19;12.73;;;11.43;;
22070;SDS011;11200;51.488;6.668;2022-09-24T17:39:45;13.45;;;12.05;;
22070;SDS011;11200;51.488;6.668;2022-09-24T17:42:11;15.15;;;12.23;;
22070;SDS011;11200;51.488;6.668;2022-09-24T17:44:36;14.00;;;12.50;;
22070;SDS011;11200;51.488;6.668;2022-09-24T17:47:02;13.50;;;12.18;;
22070;SDS011;11200;51.488;6.668;2022-09-24T17:49:28;15.77;;;12.88;;